Time;durP1;ratioP1;P1;durP2;ratioP2;P2;SDS_P1;SDS_P2;PMS_P1;PMS_P2;Temp;Humidity;BMP_temperature;BMP_pressure;BME280_temperature;BME280_humidity;BME280_pressure;Samples;Min_cycle;Max_cycle;Signal;HPM_P1;HPM_P2
2022/02/22 00:01:50;;;;;;;14.23;4.07;;;;;;;4.99;82.68;98135.19;4829168;29;20034;-75
2022/02/22 00:04:15;;;;;;;13.88;3.35;;;;;;;5.00;83.15;98150.03;4820420;29;20034;-75
2022/02/22 00:06:41;;;;;;;19.00;3.60;;;;;;;4.96;82.50;98141.72;4818919;29;20033;-75
2022/02/22 00:09:06;;;;;;;15.23;3.60;;;;;;;5.01;83.10;98144.50;4819278;29;20515;-75
2022/02/22 00:11:33;;;;;;;19.02;5.15;;;;;;;4.94;83.37;98138.50;4819900;29;20034;-74
2022/02/22 00:13:58;;;;;;;25.70;4.80;;;;;;;5.00;83.03;98166.66;4821814;29;20155;-74
2022/02/22 00:16:24;;;;;;;19.52;3.92;;;;;;;5.01;82.75;98163.00;4823144;29;20030;-75
2022/02/22 00:18:49;;;;;;;18.77;3.83;;;;;;;5.00;82.98;98163.25;4823221;29;20058;-75
2022/02/22 00:21:14;;;;;;;14.98;3.65;;;;;;;4.96;83.10;98160.25;4818319;29;20522;-75
2022/02/22 00:23:40;;;;;;;17.55;3.85;;;;;;;5.01;82.95;98170.13;4823756;29;20064;-74
2022/02/22 00:26:05;;;;;;;26.67;4.60;;;;;;;5.01;83.01;98170.13;4823660;29;20101;-75
2022/02/22 00:28:31;;;;;;;13.93;3.50;;;;;;;5.02;82.87;98193.69;4823641;29;20038;-75
2022/02/22 00:30:56;;;;;;;24.67;3.85;;;;;;;5.03;82.78;98202.44;4823521;29;20030;-74
2022/02/22 00:33:22;;;;;;;19.33;5.40;;;;;;;4.97;82.57;98212.09;4822591;29;20046;-75
2022/02/22 00:35:47;;;;;;;26.85;4.50;;;;;;;5.01;82.46;98201.88;4822037;29;20034;-75
2022/02/22 00:38:13;;;;;;;12.90;3.20;;;;;;;4.96;82.67;98213.13;4822925;29;20065;-75
2022/02/22 00:40:38;;;;;;;26.35;4.03;;;;;;;4.99;82.41;98212.69;4823890;29;20600;-75
2022/02/22 00:43:04;;;;;;;16.70;3.58;;;;;;;4.99;82.72;98227.72;4829947;29;20026;-74
2022/02/22 00:45:29;;;;;;;13.70;4.60;;;;;;;4.95;83.04;98231.88;4823038;29;20167;-74
2022/02/22 00:47:54;;;;;;;21.88;5.18;;;;;;;4.99;82.89;98254.19;4820991;29;20065;-74
2022/02/22 00:50:20;;;;;;;13.75;3.10;;;;;;;4.98;82.47;98269.22;4821948;29;20443;-73
2022/02/22 00:52:45;;;;;;;10.43;3.15;;;;;;;4.99;82.25;98268.22;4823538;29;20054;-73
2022/02/22 00:55:11;;;;;;;10.15;3.97;;;;;;;4.98;82.99;98284.31;4823490;29;20034;-73
2022/02/22 00:57:37;;;;;;;14.20;3.22;;;;;;;4.96;82.79;98286.34;4822552;29;20079;-74
2022/02/22 01:00:04;;;;;;;7.38;2.72;;;;;;;4.98;82.11;98294.88;4824500;29;20041;-75
2022/02/22 01:02:30;;;;;;;9.98;2.88;;;;;;;4.93;82.44;98287.63;4821153;29;20045;-75
2022/02/22 01:04:55;;;;;;;8.80;3.38;;;;;;;4.96;81.72;98294.28;4822969;29;20038;-75
2022/02/22 01:07:21;;;;;;;9.77;2.85;;;;;;;4.89;82.45;98297.03;4822472;29;20493;-74
2022/02/22 01:09:48;;;;;;;15.55;2.35;;;;;;;4.91;82.29;98308.22;4819885;29;20077;-74
2022/02/22 01:12:15;;;;;;;13.93;2.97;;;;;;;4.92;81.77;98325.66;4822386;29;20046;-75
2022/02/22 01:14:40;;;;;;;14.32;3.00;;;;;;;4.89;82.45;98327.97;4819060;29;20038;-75
2022/02/22 01:17:07;;;;;;;11.77;3.10;;;;;;;4.91;81.80;98333.84;4822710;29;20171;-74
2022/02/22 01:19:32;;;;;;;29.13;4.30;;;;;;;4.86;81.51;98333.69;4820089;29;20026;-75
2022/02/22 01:21:58;;;;;;;21.90;4.78;;;;;;;4.84;82.15;98335.75;4820922;29;20062;-75
2022/02/22 01:24:23;;;;;;;18.85;3.65;;;;;;;4.83;81.54;98334.94;4821212;29;20074;-75
2022/02/22 01:26:48;;;;;;;20.08;3.97;;;;;;;4.86;81.98;98352.19;4822355;29;21911;-74
2022/02/22 01:29:14;;;;;;;26.02;6.05;;;;;;;4.76;81.35;98344.78;4819758;29;20519;-74
2022/02/22 01:31:39;;;;;;;31.05;5.75;;;;;;;4.82;81.43;98365.06;4817241;29;20094;-74
2022/02/22 01:34:05;;;;;;;22.10;4.15;;;;;;;4.83;81.04;98371.13;4816134;29;20039;-74
2022/02/22 01:36:30;;;;;;;23.30;4.90;;;;;;;4.82;81.01;98365.06;4819673;29;20180;-74
2022/02/22 01:38:55;;;;;;;15.27;4.78;;;;;;;4.76;80.63;98359.88;4819679;29;20042;-74
2022/02/22 01:41:23;;;;;;;17.67;4.40;;;;;;;4.77;80.17;98374.69;4814986;29;20049;-74
2022/02/22 01:43:48;;;;;;;20.92;4.72;;;;;;;4.73;80.58;98373.53;4818884;29;20504;-74
2022/02/22 01:46:14;;;;;;;15.13;4.43;;;;;;;4.74;80.11;98389.16;4816924;29;20035;-74
2022/02/22 01:48:41;;;;;;;16.95;4.65;;;;;;;4.65;79.98;98368.53;4819378;29;20566;-74
2022/02/22 01:51:06;;;;;;;11.63;4.07;;;;;;;4.67;79.97;98396.38;4817372;29;20034;-74
2022/02/22 01:53:32;;;;;;;18.55;4.57;;;;;;;4.64;80.30;98404.72;4817402;29;20092;-74
2022/02/22 01:56:02;;;;;;;22.63;4.00;;;;;;;4.66;79.73;98404.50;4814096;29;20037;-74
2022/02/22 01:58:28;;;;;;;16.00;4.55;;;;;;;4.62;79.57;98405.97;4816314;29;20065;-74
2022/02/22 02:00:54;;;;;;;26.08;5.90;;;;;;;4.58;80.01;98395.06;4817710;29;20369;-74
2022/02/22 02:03:19;;;;;;;22.05;6.03;;;;;;;4.61;80.29;98402.53;4813145;29;20049;-74
2022/02/22 02:05:45;;;;;;;16.20;4.38;;;;;;;4.56;80.12;98410.31;4813905;29;20047;-73
2022/02/22 02:08:10;;;;;;;34.92;6.32;;;;;;;4.57;79.73;98409.28;4822637;29;20050;-73
2022/02/22 02:10:36;;;;;;;12.38;4.05;;;;;;;4.52;80.07;98406.50;4829316;29;20105;-73
2022/02/22 02:13:02;;;;;;;19.83;4.38;;;;;;;4.54;80.04;98405.25;4823100;29;20030;-73
2022/02/22 02:15:27;;;;;;;35.03;6.10;;;;;;;4.53;80.02;98414.22;4815635;29;20054;-73
2022/02/22 02:17:52;;;;;;;28.88;5.43;;;;;;;4.52;79.74;98404.66;4817910;29;20038;-74
2022/02/22 02:20:18;;;;;;;16.77;5.60;;;;;;;4.51;79.79;98410.97;4817403;29;20053;-74
2022/02/22 02:22:43;;;;;;;22.50;7.40;;;;;;;4.53;80.12;98402.81;4817620;29;20030;-74
2022/02/22 02:25:10;;;;;;;24.98;5.55;;;;;;;4.52;80.01;98417.09;4819501;29;20111;-74
2022/02/22 02:27:36;;;;;;;19.55;5.80;;;;;;;4.50;79.75;98429.69;4816723;29;20046;-73
2022/02/22 02:30:03;;;;;;;24.77;6.10;;;;;;;4.47;79.90;98414.28;4818833;29;20050;-74
2022/02/22 02:32:29;;;;;;;25.65;6.63;;;;;;;4.51;79.82;98449.81;4822273;29;20034;-74
2022/02/22 02:34:55;;;;;;;19.70;4.65;;;;;;;4.48;80.36;98439.66;4821155;29;20105;-74
2022/02/22 02:37:20;;;;;;;22.48;5.38;;;;;;;4.48;79.82;98432.56;4814510;29;20039;-74
2022/02/22 02:39:45;;;;;;;21.58;4.00;;;;;;;4.48;80.06;98421.97;4815966;29;20059;-74
2022/02/22 02:42:11;;;;;;;16.98;5.03;;;;;;;4.47;80.27;98430.94;4815358;29;20141;-74
2022/02/22 02:44:36;;;;;;;19.27;4.80;;;;;;;4.44;80.17;98428.72;4816411;29;20089;-74
2022/02/22 02:47:04;;;;;;;16.45;5.05;;;;;;;4.44;80.35;98436.66;4814932;29;20157;-72
2022/02/22 02:49:30;;;;;;;29.25;4.95;;;;;;;4.47;80.44;98436.25;4811759;29;20077;-74
2022/02/22 02:51:55;;;;;;;22.98;5.30;;;;;;;4.45;80.41;98445.41;4817757;29;21079;-74
2022/02/22 02:54:21;;;;;;;20.08;6.45;;;;;;;4.43;80.48;98456.16;4817283;29;20714;-74
2022/02/22 02:56:46;;;;;;;27.02;4.60;;;;;;;4.46;80.54;98449.66;4813988;29;20061;-74
2022/02/22 02:59:11;;;;;;;19.17;5.25;;;;;;;4.43;80.56;98442.97;4818336;29;20043;-75
2022/02/22 03:01:38;;;;;;;21.35;5.05;;;;;;;4.46;80.61;98468.13;4815550;29;20034;-74
2022/02/22 03:04:05;;;;;;;23.17;6.28;;;;;;;4.40;81.10;98461.91;4817538;29;20105;-75
2022/02/22 03:06:30;;;;;;;17.10;4.25;;;;;;;4.44;80.88;98464.91;4815674;29;20553;-72
2022/02/22 03:08:56;;;;;;;16.50;5.97;;;;;;;4.43;80.55;98468.59;4816862;29;20046;-75
2022/02/22 03:11:22;;;;;;;26.33;5.85;;;;;;;4.40;80.73;98467.19;4813960;29;20057;-74
2022/02/22 03:13:47;;;;;;;15.25;5.10;;;;;;;4.39;80.54;98452.34;4816029;29;20508;-74
2022/02/22 03:16:13;;;;;;;15.00;4.22;;;;;;;4.39;80.38;98454.22;4812260;29;20496;-73
2022/02/22 03:18:38;;;;;;;16.50;4.00;;;;;;;4.38;80.82;98458.69;4811728;29;20110;-72
2022/02/22 03:21:04;;;;;;;20.98;5.63;;;;;;;4.34;80.52;98462.78;4813214;29;20034;-75
2022/02/22 03:23:30;;;;;;;14.10;6.07;;;;;;;4.37;80.47;98454.41;4814868;29;20065;-73
2022/02/22 03:25:55;;;;;;;21.20;4.93;;;;;;;4.36;80.47;98471.31;4818262;29;20500;-74
2022/02/22 03:28:21;;;;;;;17.58;4.90;;;;;;;4.28;80.85;98473.41;4823402;29;20078;-74
2022/02/22 03:30:47;;;;;;;18.48;4.55;;;;;;;4.32;80.89;98487.81;4815801;29;20091;-74
2022/02/22 03:33:13;;;;;;;14.40;3.85;;;;;;;4.36;80.48;98496.91;4816809;29;20391;-75
2022/02/22 03:35:40;;;;;;;18.70;4.45;;;;;;;4.33;80.59;98495.50;4815190;29;20675;-75
2022/02/22 03:38:06;;;;;;;24.98;5.28;;;;;;;4.32;81.00;98501.81;4817347;29;20129;-74
2022/02/22 03:40:32;;;;;;;17.55;5.15;;;;;;;4.36;80.40;98500.38;4814933;29;20121;-74
2022/02/22 03:42:58;;;;;;;15.23;4.97;;;;;;;4.30;81.03;98503.84;4815442;29;20105;-74
2022/02/22 03:45:23;;;;;;;18.17;3.83;;;;;;;4.29;81.01;98496.97;4813743;29;20034;-73
2022/02/22 03:47:49;;;;;;;9.82;3.95;;;;;;;4.30;80.75;98509.13;4817597;29;20033;-75
2022/02/22 03:50:15;;;;;;;13.73;3.92;;;;;;;4.32;80.63;98528.25;4819561;29;20613;-74
2022/02/22 03:52:41;;;;;;;14.82;4.70;;;;;;;4.29;80.39;98515.47;4820747;29;20034;-77
2022/02/22 03:55:07;;;;;;;12.23;3.30;;;;;;;4.23;80.48;98515.50;4818338;29;20404;-74
2022/02/22 03:57:34;;;;;;;20.77;3.80;;;;;;;4.27;80.70;98525.44;4819571;29;20038;-74
2022/02/22 03:59:59;;;;;;;12.75;4.25;;;;;;;4.23;80.32;98532.19;4820342;29;20039;-74
2022/02/22 04:02:25;;;;;;;16.73;3.35;;;;;;;4.24;80.44;98543.53;4819350;29;20448;-74
2022/02/22 04:04:51;;;;;;;20.30;3.55;;;;;;;4.23;80.23;98558.59;4818237;29;20049;-74
2022/02/22 04:07:17;;;;;;;14.63;3.55;;;;;;;4.18;80.13;98545.22;4820802;29;20038;-74
2022/02/22 04:09:42;;;;;;;16.40;4.57;;;;;;;4.22;80.41;98554.31;4817355;29;20497;-74
2022/02/22 04:12:08;;;;;;;13.82;3.95;;;;;;;4.21;80.43;98552.72;4821492;29;20046;-74
2022/02/22 04:14:33;;;;;;;17.35;3.80;;;;;;;4.22;80.44;98558.78;4820850;29;20038;-74
2022/02/22 04:16:58;;;;;;;18.95;3.90;;;;;;;4.23;80.15;98570.97;4820068;29;20038;-75
2022/02/22 04:19:23;;;;;;;14.38;4.07;;;;;;;4.16;80.10;98576.31;4820258;29;20038;-74
2022/02/22 04:21:49;;;;;;;16.70;4.13;;;;;;;4.19;80.04;98596.19;4832203;29;20388;-74
2022/02/22 04:24:14;;;;;;;15.30;4.07;;;;;;;4.20;79.77;98587.25;4821892;29;20035;-75
2022/02/22 04:26:40;;;;;;;23.20;6.00;;;;;;;4.18;80.32;98595.38;4815349;29;20400;-75
2022/02/22 04:29:05;;;;;;;16.02;4.57;;;;;;;4.07;80.07;98582.88;4825411;29;20094;-74
2022/02/22 04:31:38;;;;;;;25.38;4.78;;;;;;;4.14;80.19;98599.47;4819844;29;20054;-74
2022/02/22 04:34:06;;;;;;;24.08;4.03;;;;;;;4.15;80.06;98600.31;4815583;29;20130;-74
2022/02/22 04:36:33;;;;;;;19.88;4.53;;;;;;;4.12;80.53;98601.53;4819639;29;20035;-74
2022/02/22 04:38:59;;;;;;;15.75;5.43;;;;;;;4.06;80.71;98591.81;4815946;29;20038;-74
2022/02/22 04:41:24;;;;;;;30.83;5.50;;;;;;;4.15;80.15;98611.66;4821465;29;20109;-74
2022/02/22 04:43:50;;;;;;;19.55;5.00;;;;;;;4.16;80.54;98615.91;4819505;29;20166;-74
2022/02/22 04:46:16;;;;;;;18.98;5.07;;;;;;;4.14;80.51;98606.59;4819292;29;20049;-75
2022/02/22 04:48:41;;;;;;;27.67;5.50;;;;;;;4.17;80.36;98622.81;4817236;29;20035;-73
2022/02/22 04:51:07;;;;;;;30.25;8.05;;;;;;;4.09;80.22;98607.22;4821882;29;20037;-76
2022/02/22 04:53:32;;;;;;;22.17;4.68;;;;;;;4.18;80.23;98620.97;4819714;29;20035;-74
2022/02/22 04:55:57;;;;;;;25.27;6.00;;;;;;;4.11;80.57;98621.03;4819372;29;20045;-73
2022/02/22 04:58:23;;;;;;;24.45;5.60;;;;;;;4.16;80.27;98633.59;4805479;29;20159;-74
2022/02/22 05:00:48;;;;;;;27.02;7.30;;;;;;;4.17;80.40;98645.78;4820753;29;20044;-74
2022/02/22 05:03:14;;;;;;;25.45;5.63;;;;;;;4.16;80.24;98642.34;4820952;29;20094;-74
2022/02/22 05:05:39;;;;;;;18.73;5.20;;;;;;;4.19;80.11;98654.31;4822788;29;20408;-74
2022/02/22 05:08:05;;;;;;;25.65;5.32;;;;;;;4.17;80.76;98657.13;4821695;29;20049;-74
2022/02/22 05:10:30;;;;;;;30.35;5.85;;;;;;;4.14;80.54;98651.47;4822340;29;20041;-74
2022/02/22 05:12:56;;;;;;;26.35;5.80;;;;;;;4.16;80.66;98658.19;4822154;29;20034;-74
2022/02/22 05:15:21;;;;;;;25.63;5.10;;;;;;;4.18;80.32;98652.69;4822190;29;20037;-74
2022/02/22 05:17:46;;;;;;;19.80;5.32;;;;;;;4.15;80.21;98664.47;4821237;29;20047;-74
2022/02/22 05:20:12;;;;;;;26.02;7.25;;;;;;;4.17;80.04;98670.34;4822063;29;20496;-74
2022/02/22 05:22:45;;;;;;;18.02;6.25;;;;;;;4.18;80.11;98664.06;4821209;29;20131;-75
2022/02/22 05:25:13;;;;;;;25.40;5.65;;;;;;;4.17;80.47;98656.34;4822329;29;20075;-75
2022/02/22 05:27:39;;;;;;;30.70;7.00;;;;;;;4.15;80.12;98653.91;4821826;29;20045;-74
2022/02/22 05:30:06;;;;;;;20.40;6.07;;;;;;;4.16;80.15;98666.09;4825255;29;20049;-74
2022/02/22 05:32:32;;;;;;;29.55;5.65;;;;;;;4.16;80.08;98670.56;4816319;29;20392;-74
2022/02/22 05:34:58;;;;;;;28.10;6.93;;;;;;;4.18;80.13;98671.16;4820322;29;20514;-75
2022/02/22 05:37:24;;;;;;;36.17;5.93;;;;;;;4.10;80.07;98666.13;4823336;29;20026;-74
2022/02/22 05:39:50;;;;;;;23.40;6.40;;;;;;;4.06;80.07;98657.84;4822683;29;20523;-75
2022/02/22 05:42:15;;;;;;;31.65;6.20;;;;;;;4.16;79.76;98670.56;4821977;29;20042;-75
2022/02/22 05:44:40;;;;;;;29.20;5.70;;;;;;;4.11;80.21;98658.00;4823650;29;20042;-75
2022/02/22 05:47:06;;;;;;;26.30;6.40;;;;;;;4.16;80.09;98673.22;4822398;29;20428;-74
2022/02/22 05:49:31;;;;;;;34.67;6.72;;;;;;;4.16;80.06;98679.31;4822769;29;20030;-74
2022/02/22 05:51:56;;;;;;;36.45;7.40;;;;;;;4.15;80.68;98671.59;4823015;29;20048;-75
2022/02/22 05:54:22;;;;;;;20.25;7.05;;;;;;;4.14;80.31;98681.34;4822298;29;20042;-74
2022/02/22 05:56:47;;;;;;;27.45;6.40;;;;;;;4.15;80.47;98679.53;4826315;29;20038;-74
2022/02/22 05:59:14;;;;;;;23.85;5.50;;;;;;;4.14;80.20;98678.72;4821981;29;20038;-75
2022/02/22 06:01:42;;;;;;;28.45;7.20;;;;;;;4.13;80.52;98682.38;4822658;29;20034;-74
2022/02/22 06:04:07;;;;;;;24.55;6.50;;;;;;;4.10;79.98;98689.91;4822663;29;20118;-74
2022/02/22 06:06:32;;;;;;;26.73;6.03;;;;;;;4.13;80.42;98692.94;4821789;29;20121;-74
2022/02/22 06:08:57;;;;;;;32.15;5.93;;;;;;;4.10;80.39;98687.25;4823426;29;20031;-79
2022/02/22 06:11:23;;;;;;;41.45;7.03;;;;;;;4.10;80.29;98698.66;4829035;29;20038;-75
2022/02/22 06:13:48;;;;;;;23.23;6.43;;;;;;;4.08;80.33;98705.97;4825792;29;20034;-74
2022/02/22 06:16:14;;;;;;;31.80;6.95;;;;;;;4.09;78.44;98712.03;4817303;29;20096;-73
2022/02/22 06:18:39;;;;;;;40.83;7.68;;;;;;;4.08;78.87;98721.81;4824484;29;20034;-74
2022/02/22 06:21:05;;;;;;;21.98;6.43;;;;;;;4.05;78.76;98714.31;4819530;29;20046;-74
2022/02/22 06:23:30;;;;;;;38.58;6.60;;;;;;;4.08;78.43;98737.66;4820220;29;20378;-74
2022/02/22 06:25:55;;;;;;;28.73;7.55;;;;;;;4.09;78.95;98728.69;4817738;29;20408;-73
2022/02/22 06:28:21;;;;;;;27.55;6.75;;;;;;;4.08;79.54;98745.59;4821885;29;20488;-73
2022/02/22 06:30:46;;;;;;;19.83;5.32;;;;;;;4.03;79.56;98745.41;4822343;29;20034;-74
2022/02/22 06:33:11;;;;;;;30.73;7.40;;;;;;;4.09;79.67;98744.53;4822890;29;20043;-74
2022/02/22 06:35:37;;;;;;;29.17;8.93;;;;;;;4.07;80.08;98746.59;4822035;29;20613;-75
2022/02/22 06:38:02;;;;;;;24.00;7.65;;;;;;;4.10;79.74;98762.03;4820839;29;20560;-74
2022/02/22 06:40:28;;;;;;;17.45;6.55;;;;;;;4.12;79.74;98757.34;4825101;29;20042;-74
2022/02/22 06:42:54;;;;;;;28.80;7.60;;;;;;;4.10;79.23;98771.78;4819878;29;20054;-74
2022/02/22 06:45:20;;;;;;;26.00;6.10;;;;;;;4.06;79.92;98774.03;4819071;29;20492;-73
2022/02/22 06:47:45;;;;;;;31.90;7.38;;;;;;;4.13;79.90;98780.09;4820689;29;20041;-74
2022/02/22 06:50:12;;;;;;;26.20;6.20;;;;;;;4.12;79.56;98777.66;4821309;29;20030;-74
2022/02/22 06:52:39;;;;;;;23.83;5.45;;;;;;;4.11;79.76;98778.66;4821992;29;20042;-74
2022/02/22 06:55:06;;;;;;;30.70;6.47;;;;;;;4.09;79.59;98784.16;4821553;29;20046;-74
2022/02/22 06:57:32;;;;;;;22.65;5.38;;;;;;;4.11;80.10;98797.16;4811201;29;20045;-74
2022/02/22 06:59:57;;;;;;;28.75;7.97;;;;;;;4.14;79.99;98791.47;4821391;29;20446;-74
2022/02/22 07:02:23;;;;;;;27.10;5.68;;;;;;;4.08;80.05;98784.38;4822052;29;20042;-74
2022/02/22 07:04:49;;;;;;;23.35;7.65;;;;;;;4.14;80.49;98791.47;4807436;29;20039;-75
2022/02/22 07:07:14;;;;;;;19.40;5.68;;;;;;;4.14;80.43;98794.91;4821631;29;20050;-74
2022/02/22 07:09:40;;;;;;;19.30;5.05;;;;;;;4.14;80.06;98799.38;4822027;29;20045;-74
2022/02/22 07:12:05;;;;;;;20.65;5.53;;;;;;;4.15;80.68;98804.44;4822076;29;20713;-74
2022/02/22 07:14:30;;;;;;;29.52;5.85;;;;;;;4.10;80.81;98804.28;4822372;29;20034;-74
2022/02/22 07:16:56;;;;;;;27.40;6.40;;;;;;;4.17;80.21;98814.81;4816008;29;20035;-74
2022/02/22 07:19:22;;;;;;;22.17;5.60;;;;;;;4.17;80.56;98814.81;4819467;29;20038;-74
2022/02/22 07:21:47;;;;;;;22.52;7.78;;;;;;;4.05;80.79;98801.44;4820267;29;20454;-74
2022/02/22 07:24:12;;;;;;;34.63;7.38;;;;;;;4.18;80.48;98825.19;4819213;29;20321;-74
2022/02/22 07:26:38;;;;;;;22.67;5.88;;;;;;;4.22;80.69;98829.00;4820435;29;20503;-73
2022/02/22 07:29:04;;;;;;;24.60;6.20;;;;;;;4.23;80.43;98832.47;4821513;29;20540;-73
2022/02/22 07:31:29;;;;;;;22.38;5.45;;;;;;;4.24;80.19;98842.00;4816047;29;20035;-73
2022/02/22 07:33:54;;;;;;;21.23;5.55;;;;;;;4.23;81.21;98838.59;4819623;29;20121;-75
2022/02/22 07:36:20;;;;;;;24.73;6.80;;;;;;;4.26;80.58;98845.28;4821536;29;20039;-74
2022/02/22 07:38:45;;;;;;;23.52;5.25;;;;;;;4.27;80.75;98845.06;4821129;29;20050;-74
2022/02/22 07:41:10;;;;;;;22.60;5.55;;;;;;;4.29;80.85;98858.88;4821678;29;20044;-74
2022/02/22 07:43:35;;;;;;;26.25;5.13;;;;;;;4.29;80.92;98865.97;4821896;29;20497;-75
2022/02/22 07:46:01;;;;;;;30.15;7.55;;;;;;;4.29;80.74;98856.22;4821186;29;20030;-73
2022/02/22 07:48:26;;;;;;;26.92;6.53;;;;;;;4.27;80.60;98857.47;4821288;29;20455;-74
2022/02/22 07:50:51;;;;;;;22.38;5.20;;;;;;;4.32;81.21;98874.31;4816805;29;20035;-74
2022/02/22 07:53:17;;;;;;;24.92;5.50;;;;;;;4.32;80.68;98871.69;4811650;29;20457;-74
2022/02/22 07:55:42;;;;;;;20.40;5.05;;;;;;;4.34;81.10;98880.22;4824358;29;20490;-75
2022/02/22 07:58:09;;;;;;;17.08;5.00;;;;;;;4.31;80.46;98872.69;4823941;29;20046;-75
2022/02/22 08:00:35;;;;;;;22.38;5.85;;;;;;;4.30;80.88;98870.25;4821078;29;20034;-75
2022/02/22 08:03:00;;;;;;;21.77;5.25;;;;;;;4.37;80.62;98890.34;4821403;29;20053;-73
2022/02/22 08:05:25;;;;;;;29.45;6.32;;;;;;;4.38;80.86;98891.97;4821476;29;20057;-74
2022/02/22 08:07:50;;;;;;;19.27;4.90;;;;;;;4.39;80.97;98898.88;4816396;29;20043;-75
2022/02/22 08:10:16;;;;;;;23.45;6.45;;;;;;;4.41;81.26;98898.69;4813653;29;20524;-74
2022/02/22 08:12:41;;;;;;;18.08;6.05;;;;;;;4.37;81.28;98895.63;4819125;29;20041;-75
2022/02/22 08:15:08;;;;;;;22.75;4.72;;;;;;;4.44;80.77;98896.44;4820623;29;20720;-74
2022/02/22 08:17:33;;;;;;;19.38;5.05;;;;;;;4.42;81.41;98890.53;4820521;29;20042;-74
2022/02/22 08:19:59;;;;;;;28.52;5.65;;;;;;;4.49;81.12;98909.84;4820881;29;20061;-74
2022/02/22 08:22:25;;;;;;;17.35;4.65;;;;;;;4.49;81.18;98909.84;4820900;29;20512;-74
2022/02/22 08:24:50;;;;;;;27.50;6.57;;;;;;;4.52;80.68;98906.75;4818599;29;20034;-74
2022/02/22 08:27:16;;;;;;;18.60;5.80;;;;;;;4.52;81.19;98911.25;4819047;29;20280;-74
2022/02/22 08:29:41;;;;;;;27.25;5.70;;;;;;;4.57;80.61;98928.09;4821054;29;20038;-75
2022/02/22 08:32:06;;;;;;;20.17;5.40;;;;;;;4.56;80.81;98913.25;4819679;29;20511;-74
2022/02/22 08:34:32;;;;;;;27.38;6.22;;;;;;;4.61;80.34;98931.13;4824253;29;20178;-73
2022/02/22 08:36:57;;;;;;;23.20;5.13;;;;;;;4.52;80.90;98914.69;4821060;29;20438;-74
2022/02/22 08:39:24;;;;;;;28.50;6.03;;;;;;;4.59;80.71;98916.53;4824065;29;20129;-74
2022/02/22 08:41:50;;;;;;;15.00;4.50;;;;;;;4.61;80.85;98923.19;4823631;29;20403;-73
2022/02/22 08:44:16;;;;;;;22.83;5.10;;;;;;;4.60;79.86;98926.06;4823700;29;20042;-75
2022/02/22 08:46:41;;;;;;;32.15;6.28;;;;;;;4.65;80.50;98927.06;4823308;29;20034;-75
2022/02/22 08:49:07;;;;;;;24.60;5.00;;;;;;;4.62;80.36;98929.31;4823516;29;20034;-74
2022/02/22 08:51:32;;;;;;;25.05;4.95;;;;;;;4.63;80.93;98937.00;4823126;29;20404;-74
2022/02/22 08:53:57;;;;;;;24.98;5.13;;;;;;;4.67;81.18;98938.25;4823456;29;20042;-74
2022/02/22 08:56:23;;;;;;;19.90;4.97;;;;;;;4.67;80.44;98932.16;4825726;29;20134;-75
2022/02/22 08:58:48;;;;;;;26.55;6.78;;;;;;;4.69;80.70;98933.56;4820033;29;20374;-73
2022/02/22 09:01:13;;;;;;;20.90;5.45;;;;;;;4.74;80.28;98946.16;4822483;29;20038;-74
2022/02/22 09:03:39;;;;;;;26.23;6.00;;;;;;;4.78;81.48;98939.44;4822579;29;20054;-73
2022/02/22 09:06:05;;;;;;;17.92;5.13;;;;;;;4.82;80.54;98937.97;4821446;29;20096;-74
2022/02/22 09:08:31;;;;;;;17.50;6.00;;;;;;;4.84;80.60;98936.75;4823104;29;20407;-73
2022/02/22 09:10:57;;;;;;;25.38;5.07;;;;;;;4.87;80.54;98930.25;4832485;29;20048;-76
2022/02/22 09:13:23;;;;;;;21.60;5.15;;;;;;;4.94;80.14;98929.19;4827459;29;20046;-74
2022/02/22 09:15:49;;;;;;;20.50;5.32;;;;;;;4.94;80.19;98929.19;4824765;29;20404;-74
2022/02/22 09:18:16;;;;;;;21.95;4.95;;;;;;;5.01;79.67;98932.63;4821447;29;20043;-74
2022/02/22 09:20:41;;;;;;;25.27;5.68;;;;;;;5.05;79.73;98935.63;4823601;29;20034;-74
2022/02/22 09:23:07;;;;;;;26.20;6.18;;;;;;;5.07;79.67;98931.75;4822577;29;20057;-74
2022/02/22 09:25:33;;;;;;;26.23;5.20;;;;;;;5.08;79.68;98929.94;4823228;29;20027;-74
2022/02/22 09:28:05;;;;;;;18.42;4.05;;;;;;;5.17;80.17;98924.19;4820667;29;20091;-73
2022/02/22 09:30:31;;;;;;;27.27;6.95;;;;;;;5.21;80.38;98935.16;4822188;29;20045;-74
2022/02/22 09:32:57;;;;;;;20.70;5.13;;;;;;;5.17;80.20;98918.09;4819397;29;20027;-74
2022/02/22 09:35:25;;;;;;;18.73;5.05;;;;;;;5.27;80.07;98926.38;4822898;29;20026;-74
2022/02/22 09:37:51;;;;;;;30.52;4.72;;;;;;;5.28;79.86;98918.25;4823002;29;20034;-73
2022/02/22 09:40:17;;;;;;;26.00;5.25;;;;;;;5.32;79.99;98924.72;4823256;29;20046;-74
2022/02/22 09:42:44;;;;;;;26.10;5.72;;;;;;;5.36;80.00;98926.94;4822142;29;20077;-74
2022/02/22 09:45:10;;;;;;;21.58;5.38;;;;;;;5.41;79.44;98925.28;4820895;29;20042;-73
2022/02/22 09:47:36;;;;;;;19.45;4.53;;;;;;;5.43;79.94;98927.69;4822454;29;20046;-75
2022/02/22 09:50:04;;;;;;;21.17;6.53;;;;;;;5.45;79.04;98923.81;4821513;29;20087;-73
2022/02/22 09:52:29;;;;;;;19.05;6.22;;;;;;;5.43;78.59;98917.13;4819551;29;20090;-74
2022/02/22 09:54:55;;;;;;;20.55;4.95;;;;;;;5.53;78.95;98920.09;4822417;29;20038;-74
2022/02/22 09:57:20;;;;;;;21.58;6.70;;;;;;;5.58;78.56;98913.16;4823799;29;20069;-75
2022/02/22 09:59:45;;;;;;;34.13;6.53;;;;;;;5.56;79.05;98912.53;4818953;29;20408;-74
2022/02/22 10:02:11;;;;;;;28.10;6.63;;;;;;;5.62;78.76;98916.97;4824168;29;20065;-74
2022/02/22 10:04:48;;;;;;;23.83;5.65;;;;;;;5.66;78.96;98928.75;4826209;29;20030;-73
2022/02/22 10:07:14;;;;;;;16.92;4.97;;;;;;;5.68;79.05;98923.28;4819258;29;20034;-73
2022/02/22 10:09:51;;;;;;;25.45;6.13;;;;;;;5.71;78.68;98931.59;4820124;29;20035;-75
2022/02/22 10:12:27;;;;;;;23.70;7.13;;;;;;;5.65;78.13;98926.34;4822918;29;20412;-73
2022/02/22 10:14:55;;;;;;;20.17;5.57;;;;;;;5.75;78.22;98922.19;4822470;29;20517;-73
2022/02/22 10:17:20;;;;;;;23.98;6.28;;;;;;;5.73;78.00;98926.06;4818332;29;20038;-75
2022/02/22 10:20:03;;;;;;;24.20;7.03;;;;;;;5.79;77.96;98931.31;4821182;29;20454;-74
2022/02/22 10:22:32;;;;;;;23.83;7.38;;;;;;;5.83;78.37;98931.72;4821299;29;20431;-74
2022/02/22 10:25:06;;;;;;;24.40;6.00;;;;;;;5.86;78.58;98928.63;4820708;29;20086;-73
2022/02/22 10:27:46;;;;;;;25.00;6.95;;;;;;;5.88;78.05;98934.53;4822726;29;20050;-74
2022/02/22 10:30:38;;;;;;;30.70;6.05;;;;;;;5.90;77.51;98928.00;4823023;29;20038;-74
2022/02/22 10:33:08;;;;;;;19.50;6.68;;;;;;;5.96;77.55;98923.69;4825462;29;20511;-75
2022/02/22 10:35:33;;;;;;;24.98;6.45;;;;;;;6.01;77.77;98937.06;4822463;29;20053;-73
2022/02/22 10:38:13;;;;;;;25.45;6.22;;;;;;;6.00;77.85;98923.03;4821277;29;20669;-74
2022/02/22 10:40:40;;;;;;;17.23;5.05;;;;;;;6.04;76.17;98926.88;4819285;29;20065;-74
2022/02/22 10:43:05;;;;;;;18.85;5.38;;;;;;;6.02;76.11;98923.63;4822179;29;20045;-74
2022/02/22 10:45:31;;;;;;;20.70;5.35;;;;;;;6.04;76.31;98918.09;4822529;29;20130;-74
2022/02/22 10:47:57;;;;;;;26.88;6.57;;;;;;;5.98;76.08;98903.88;4831011;29;20047;-74
2022/02/22 10:50:31;;;;;;;26.35;6.38;;;;;;;6.08;76.35;98906.03;4827184;29;20475;-74
2022/02/22 10:52:56;;;;;;;21.80;6.53;;;;;;;6.09;76.21;98914.81;4817575;29;20042;-75
2022/02/22 10:55:23;;;;;;;22.23;5.53;;;;;;;6.12;76.46;98917.81;4820822;29;20551;-73
2022/02/22 10:57:49;;;;;;;14.60;5.03;;;;;;;6.14;76.83;98913.09;4821760;29;20069;-74
2022/02/22 11:00:15;;;;;;;22.00;5.30;;;;;;;6.17;76.22;98911.88;4822382;29;20500;-74
2022/02/22 11:02:43;;;;;;;25.63;5.25;;;;;;;6.19;76.17;98920.41;4821832;29;20109;-74
2022/02/22 11:05:09;;;;;;;21.30;5.50;;;;;;;6.21;75.80;98913.84;4820082;29;20042;-74
2022/02/22 11:07:34;;;;;;;24.67;5.97;;;;;;;6.25;76.38;98922.16;4823433;29;20045;-74
2022/02/22 11:10:00;;;;;;;26.92;7.18;;;;;;;6.28;76.33;98916.44;4822116;29;20038;-74
2022/02/22 11:12:29;;;;;;;15.00;5.63;;;;;;;6.30;76.51;98930.28;4822431;29;20295;-74
2022/02/22 11:15:05;;;;;;;14.65;4.15;;;;;;;6.32;75.78;98929.03;4819848;29;20030;-74
2022/02/22 11:17:30;;;;;;;22.65;4.70;;;;;;;6.25;75.42;98917.69;4827699;29;20034;-74
2022/02/22 11:19:56;;;;;;;20.98;5.65;;;;;;;6.38;74.91;98933.47;4821156;29;20644;-74
2022/02/22 11:22:24;;;;;;;20.42;3.85;;;;;;;6.41;74.29;98935.69;4818587;29;20046;-74
2022/02/22 11:24:52;;;;;;;18.92;4.78;;;;;;;6.46;74.16;98950.94;4823474;29;20038;-74
2022/02/22 11:27:28;;;;;;;15.02;4.85;;;;;;;6.47;74.27;98949.88;4818571;29;20113;-74
2022/02/22 11:29:59;;;;;;;;;;;;;;;6.44;74.92;98951.16;4824865;29;20038;-73